createdAt,value
2023-02-20T00:00:52.613Z,84.00
2023-02-20T00:03:19.790Z,84.00
2023-02-20T00:05:46.857Z,84.00
2023-02-20T00:08:13.900Z,83.90
2023-02-20T00:10:41.490Z,83.80
2023-02-20T00:13:08.474Z,83.80
2023-02-20T00:15:35.470Z,83.70
2023-02-20T00:18:02.670Z,83.60
2023-02-20T00:20:30.425Z,83.60
2023-02-20T00:22:57.488Z,83.50
2023-02-20T00:25:24.504Z,83.50
2023-02-20T00:27:51.868Z,83.50
2023-02-20T00:30:21.848Z,83.50
2023-02-20T00:32:50.955Z,83.40
2023-02-20T00:35:19.157Z,83.40
2023-02-20T00:37:47.762Z,83.40
2023-02-20T00:40:16.221Z,83.40
2023-02-20T00:42:43.478Z,83.40
2023-02-20T00:45:11.644Z,83.30
2023-02-20T00:47:39.039Z,83.30
2023-02-20T00:50:07.592Z,83.30
2023-02-20T00:52:36.128Z,83.30
2023-02-20T00:55:03.771Z,83.30
2023-02-20T00:57:30.833Z,83.30
2023-02-20T00:59:57.874Z,83.30
2023-02-20T01:02:25.016Z,83.20
2023-02-20T01:04:52.002Z,83.20
2023-02-20T01:07:19.057Z,83.20
2023-02-20T01:09:46.043Z,83.20
2023-02-20T01:12:16.030Z,83.20
2023-02-20T01:14:43.089Z,83.20
2023-02-20T01:17:12.294Z,83.20
2023-02-20T01:19:39.389Z,83.20
2023-02-20T01:22:08.913Z,83.20
2023-02-20T01:24:36.215Z,83.20
2023-02-20T01:27:03.390Z,83.20
2023-02-20T01:29:30.451Z,83.20
2023-02-20T01:31:59.457Z,83.20
2023-02-20T01:34:26.921Z,83.20
2023-02-20T01:36:56.952Z,83.30
2023-02-20T01:39:29.008Z,83.30
2023-02-20T01:42:00.163Z,83.30
2023-02-20T01:44:32.421Z,83.30
2023-02-20T01:47:00.785Z,83.20
2023-02-20T01:50:00.304Z,83.20
2023-02-20T01:52:30.973Z,83.20
2023-02-20T01:55:10.860Z,83.20
2023-02-20T01:57:41.275Z,83.20
2023-02-20T02:00:12.149Z,83.20
2023-02-20T02:02:46.431Z,83.10
2023-02-20T02:05:14.365Z,83.10
2023-02-20T02:07:41.546Z,82.80
2023-02-20T02:10:13.259Z,82.80
2023-02-20T02:12:42.273Z,82.70
2023-02-20T02:15:22.115Z,82.70
2023-02-20T02:18:26.927Z,82.80
2023-02-20T02:21:24.127Z,82.80
2023-02-20T02:24:09.894Z,82.80
2023-02-20T02:26:48.847Z,82.80
2023-02-20T02:29:52.779Z,82.70
2023-02-20T02:32:32.982Z,82.60
2023-02-20T02:35:26.988Z,82.50
2023-02-20T02:38:12.598Z,82.60
2023-02-20T02:41:11.588Z,82.50
2023-02-20T02:44:00.484Z,82.60
2023-02-20T02:46:40.917Z,82.60
2023-02-20T02:49:21.570Z,82.60
2023-02-20T02:51:50.860Z,82.60
2023-02-20T02:54:22.285Z,82.50
2023-02-20T02:56:49.389Z,82.50
2023-02-20T02:59:32.605Z,82.50
2023-02-20T03:02:05.354Z,82.50
2023-02-20T03:04:33.870Z,82.30
2023-02-20T03:07:07.787Z,82.20
2023-02-20T03:09:40.868Z,82.00
2023-02-20T03:12:12.160Z,82.00
2023-02-20T03:15:12.636Z,82.10
2023-02-20T03:17:47.877Z,82.20
2023-02-20T03:20:18.633Z,82.20
2023-02-20T03:22:57.227Z,82.30
2023-02-20T03:25:50.366Z,82.30
2023-02-20T03:28:24.748Z,82.30
2023-02-20T03:30:57.992Z,82.30
2023-02-20T03:33:59.257Z,82.10
2023-02-20T03:37:05.886Z,82.00
2023-02-20T03:39:56.077Z,82.00
2023-02-20T03:42:43.699Z,82.00
2023-02-20T03:45:23.351Z,82.00
2023-02-20T03:47:55.117Z,82.00
2023-02-20T03:50:22.902Z,82.00
2023-02-20T03:52:51.168Z,82.00
2023-02-20T03:55:18.605Z,82.00
2023-02-20T03:57:51.725Z,81.80
2023-02-20T04:00:32.844Z,81.60
2023-02-20T04:03:06.053Z,81.70
2023-02-20T04:05:40.852Z,81.60
2023-02-20T04:08:20.822Z,81.70
2023-02-20T04:11:10.640Z,81.70
2023-02-20T04:13:39.680Z,81.80
2023-02-20T04:16:08.392Z,81.80
2023-02-20T04:18:35.996Z,81.90
2023-02-20T04:21:09.899Z,81.90
2023-02-20T04:23:43.066Z,81.90
2023-02-20T04:26:14.860Z,81.70
2023-02-20T04:28:44.595Z,81.60
2023-02-20T04:31:15.533Z,81.60
2023-02-20T04:33:43.340Z,81.60
2023-02-20T04:36:16.017Z,81.70
2023-02-20T04:38:43.424Z,81.70
2023-02-20T04:41:14.094Z,81.70
2023-02-20T04:43:41.574Z,81.70
2023-02-20T04:46:08.664Z,81.60
2023-02-20T04:48:36.600Z,81.50
2023-02-20T04:51:04.277Z,81.50
2023-02-20T04:53:33.200Z,81.50
2023-02-20T04:56:00.169Z,81.60
2023-02-20T04:58:28.057Z,81.60
2023-02-20T05:01:00.988Z,81.70
2023-02-20T05:03:28.074Z,81.70
2023-02-20T05:05:55.057Z,81.70
2023-02-20T05:08:22.091Z,81.70
2023-02-20T05:10:49.087Z,81.70
2023-02-20T05:13:16.134Z,81.70
2023-02-20T05:15:43.268Z,81.70
2023-02-20T05:18:10.328Z,81.80
2023-02-20T05:20:55.954Z,81.80
2023-02-20T05:23:23.034Z,81.80
2023-02-20T05:25:50.102Z,81.80
2023-02-20T05:28:17.213Z,81.80
2023-02-20T05:30:44.412Z,81.70
2023-02-20T05:33:11.542Z,81.70
2023-02-20T05:35:40.568Z,81.50
2023-02-20T05:38:07.766Z,81.50
2023-02-20T05:40:35.291Z,81.50
2023-02-20T05:43:02.339Z,81.50
2023-02-20T05:45:29.356Z,81.50
2023-02-20T05:47:56.308Z,81.50
2023-02-20T05:50:23.276Z,81.50
2023-02-20T05:52:50.315Z,81.60
2023-02-20T05:55:17.369Z,81.60
2023-02-20T05:57:44.345Z,81.60
2023-02-20T06:00:12.051Z,81.60
2023-02-20T06:02:39.397Z,81.60
2023-02-20T06:05:07.771Z,81.60
2023-02-20T06:07:35.607Z,81.70
2023-02-20T06:10:04.074Z,81.70
2023-02-20T06:12:31.236Z,81.70
2023-02-20T06:14:58.231Z,81.70
2023-02-20T06:17:25.227Z,81.80
2023-02-20T06:19:52.197Z,81.80
2023-02-20T06:22:19.314Z,81.90
2023-02-20T06:24:47.735Z,82.00
2023-02-20T06:27:16.686Z,82.10
2023-02-20T06:29:43.986Z,82.10
2023-02-20T06:32:11.080Z,82.20
2023-02-20T06:34:38.124Z,82.20
2023-02-20T06:37:05.699Z,82.30
2023-02-20T06:39:33.530Z,82.20
2023-02-20T06:42:00.552Z,82.20
2023-02-20T06:44:27.804Z,82.10
2023-02-20T06:46:55.684Z,82.10
2023-02-20T06:49:22.645Z,82.10
2023-02-20T06:51:53.943Z,82.20
2023-02-20T06:54:22.311Z,82.20
2023-02-20T06:56:49.249Z,82.30
2023-02-20T06:59:16.330Z,82.30
2023-02-20T07:01:44.193Z,82.30
2023-02-20T07:04:20.389Z,82.30
2023-02-20T07:06:47.749Z,82.40
2023-02-20T07:09:15.753Z,82.30
2023-02-20T07:11:43.608Z,82.40
2023-02-20T07:14:10.839Z,82.40
2023-02-20T07:16:37.914Z,82.50
2023-02-20T07:19:04.981Z,82.50
2023-02-20T07:21:32.018Z,82.50
2023-02-20T07:23:58.952Z,82.50
2023-02-20T07:26:28.784Z,82.50
2023-02-20T07:29:03.232Z,82.60
2023-02-20T07:31:30.569Z,82.60
2023-02-20T07:33:58.351Z,82.60
2023-02-20T07:36:25.933Z,82.60
2023-02-20T07:38:57.916Z,82.70
2023-02-20T07:41:26.592Z,82.70
2023-02-20T07:43:53.529Z,82.70
2023-02-20T07:46:21.632Z,82.80
2023-02-20T07:48:48.604Z,82.80
2023-02-20T07:51:16.278Z,82.80
2023-02-20T07:53:50.790Z,82.80
2023-02-20T07:56:19.883Z,82.80
2023-02-20T07:58:47.469Z,82.90
2023-02-20T08:01:14.576Z,82.90
2023-02-20T08:03:41.566Z,82.90
2023-02-20T08:06:09.815Z,82.90
2023-02-20T08:08:36.850Z,82.90
2023-02-20T08:11:09.146Z,82.90
2023-02-20T08:13:37.623Z,82.90
2023-02-20T08:16:04.939Z,83.00
2023-02-20T08:18:31.953Z,83.00
2023-02-20T08:20:59.005Z,83.00
2023-02-20T08:23:26.774Z,82.90
2023-02-20T08:25:54.410Z,82.90
2023-02-20T08:28:21.983Z,82.80
2023-02-20T08:30:49.005Z,82.70
2023-02-20T08:33:16.741Z,82.60
2023-02-20T08:35:43.861Z,82.60
2023-02-20T08:38:43.463Z,82.60
2023-02-20T08:41:12.416Z,82.60
2023-02-20T08:43:40.836Z,82.60
2023-02-20T08:46:08.379Z,82.70
2023-02-20T08:48:36.385Z,82.70
2023-02-20T08:51:04.145Z,82.70
2023-02-20T08:53:31.661Z,82.70
2023-02-20T08:55:58.922Z,82.80
2023-02-20T08:58:26.423Z,82.80
2023-02-20T09:00:54.784Z,82.80
2023-02-20T09:03:22.267Z,82.80
2023-02-20T09:05:49.689Z,82.80
2023-02-20T09:08:16.745Z,82.70
2023-02-20T09:10:44.690Z,82.60
2023-02-20T09:13:12.059Z,82.50
2023-02-20T09:15:40.210Z,82.40
2023-02-20T09:18:11.294Z,82.30
2023-02-20T09:20:38.623Z,82.20
2023-02-20T09:23:05.904Z,82.20
2023-02-20T09:25:33.247Z,82.20
2023-02-20T09:28:00.300Z,82.10
2023-02-20T09:30:27.811Z,82.20
2023-02-20T09:32:54.875Z,82.20
2023-02-20T09:35:27.438Z,82.20
2023-02-20T09:37:54.887Z,82.10
2023-02-20T09:40:24.389Z,82.00
2023-02-20T09:43:21.579Z,82.00
2023-02-20T09:46:14.896Z,82.10
2023-02-20T09:48:57.128Z,82.00
2023-02-20T09:51:27.439Z,82.00
2023-02-20T09:54:11.792Z,82.00
2023-02-20T09:56:42.587Z,82.00
2023-02-20T09:59:12.627Z,82.00
2023-02-20T10:01:49.707Z,82.10
2023-02-20T10:04:22.686Z,82.20
2023-02-20T10:06:53.491Z,82.30
2023-02-20T10:09:20.808Z,82.30
2023-02-20T10:12:25.043Z,82.30
2023-02-20T10:15:25.097Z,82.20
2023-02-20T10:18:13.333Z,82.20
2023-02-20T10:21:03.193Z,81.80
2023-02-20T10:23:47.234Z,81.90
2023-02-20T10:26:30.209Z,82.10
2023-02-20T10:29:14.487Z,82.20
2023-02-20T10:31:48.084Z,82.20
2023-02-20T10:34:23.947Z,82.20
2023-02-20T10:36:55.331Z,82.30
2023-02-20T10:39:23.544Z,82.30
2023-02-20T10:41:56.821Z,82.20
2023-02-20T10:44:37.540Z,82.10
2023-02-20T10:47:22.542Z,82.10
2023-02-20T10:50:09.834Z,81.90
2023-02-20T10:52:50.021Z,81.90
2023-02-20T10:55:48.853Z,81.90
2023-02-20T10:58:19.102Z,81.90
2023-02-20T11:00:56.599Z,81.90
2023-02-20T11:03:38.298Z,81.90
2023-02-20T11:06:10.832Z,81.90
2023-02-20T11:08:38.373Z,81.90
2023-02-20T11:11:30.174Z,81.70
2023-02-20T11:13:59.860Z,81.70
2023-02-20T11:16:49.524Z,81.70
2023-02-20T11:19:28.142Z,81.70
2023-02-20T11:21:55.265Z,81.60
2023-02-20T11:24:32.813Z,81.60
2023-02-20T11:27:13.947Z,81.50
2023-02-20T11:29:54.956Z,81.40
2023-02-20T11:32:38.317Z,81.40
2023-02-20T11:35:17.335Z,81.50
2023-02-20T11:37:55.719Z,81.50
2023-02-20T11:40:30.849Z,81.50
2023-02-20T11:43:19.689Z,81.40
2023-02-20T11:45:47.540Z,81.20
2023-02-20T11:48:17.668Z,81.00
2023-02-20T11:50:52.870Z,81.10
2023-02-20T11:53:29.844Z,81.00
2023-02-20T11:56:18.733Z,80.90
2023-02-20T11:58:47.106Z,80.70
2023-02-20T12:01:31.042Z,80.70
2023-02-20T12:03:59.685Z,80.80
2023-02-20T12:06:38.858Z,80.80
2023-02-20T12:09:09.897Z,80.80
2023-02-20T12:11:36.961Z,80.80
2023-02-20T12:14:13.008Z,80.90
2023-02-20T12:17:04.178Z,81.00
2023-02-20T12:19:34.215Z,80.90
2023-02-20T12:22:22.495Z,80.70
2023-02-20T12:25:10.959Z,80.70
2023-02-20T12:27:55.700Z,80.80
2023-02-20T12:30:31.328Z,80.80
2023-02-20T12:33:25.188Z,80.70
2023-02-20T12:36:28.069Z,80.70
2023-02-20T12:39:21.018Z,80.70
2023-02-20T12:41:48.276Z,80.80
2023-02-20T12:44:26.688Z,80.80
2023-02-20T12:47:24.958Z,80.80
2023-02-20T12:50:10.667Z,80.90
2023-02-20T12:52:50.959Z,80.80
2023-02-20T12:55:52.396Z,80.80
2023-02-20T12:58:32.374Z,80.80
2023-02-20T13:01:06.423Z,80.80
2023-02-20T13:03:39.320Z,80.70
2023-02-20T13:06:07.587Z,80.50
2023-02-20T13:08:55.896Z,80.50
2023-02-20T13:11:26.398Z,80.60
2023-02-20T13:14:06.247Z,80.70
2023-02-20T13:16:52.296Z,80.80
2023-02-20T13:19:40.988Z,80.70
2023-02-20T13:22:08.661Z,80.80
2023-02-20T13:24:40.155Z,80.80
2023-02-20T13:27:25.902Z,80.80
2023-02-20T13:30:02.624Z,80.90
2023-02-20T13:32:33.384Z,81.00
2023-02-20T13:35:44.403Z,80.90
2023-02-20T13:38:13.763Z,80.90
2023-02-20T13:41:01.928Z,80.80
2023-02-20T13:43:34.080Z,80.80
2023-02-20T13:46:01.186Z,80.80
2023-02-20T13:48:31.315Z,80.80
2023-02-20T13:51:22.288Z,80.90
2023-02-20T13:53:58.937Z,80.80
2023-02-20T13:56:45.929Z,80.90
2023-02-20T13:59:17.986Z,80.90
2023-02-20T14:02:05.693Z,81.00
2023-02-20T14:04:33.524Z,81.10
2023-02-20T14:07:00.581Z,81.10
2023-02-20T14:09:32.358Z,81.20
2023-02-20T14:12:06.720Z,81.10
2023-02-20T14:14:39.018Z,81.10
2023-02-20T14:17:14.081Z,81.10
2023-02-20T14:19:44.929Z,81.10
2023-02-20T14:22:33.738Z,81.20
2023-02-20T14:25:03.438Z,81.20
2023-02-20T14:27:33.031Z,81.30
2023-02-20T14:30:23.758Z,81.30
2023-02-20T14:32:53.773Z,81.30
2023-02-20T14:35:39.023Z,81.40
2023-02-20T14:38:25.733Z,81.40
2023-02-20T14:40:52.901Z,81.50
2023-02-20T14:43:22.648Z,81.50
2023-02-20T14:46:06.022Z,81.50
2023-02-20T14:48:38.397Z,81.50
2023-02-20T14:51:17.614Z,81.50
2023-02-20T14:53:46.128Z,81.40
2023-02-20T14:56:17.656Z,81.40
2023-02-20T14:58:46.311Z,81.50
2023-02-20T15:01:39.309Z,81.40
2023-02-20T15:04:17.630Z,81.30
2023-02-20T15:06:48.398Z,81.10
2023-02-20T15:09:22.794Z,81.20
2023-02-20T15:11:52.453Z,81.20
2023-02-20T15:14:23.041Z,81.30
2023-02-20T15:17:19.225Z,81.30
2023-02-20T15:19:47.025Z,81.40
2023-02-20T15:22:40.977Z,81.50
2023-02-20T15:25:26.068Z,81.50
2023-02-20T15:28:19.051Z,81.60
2023-02-20T15:31:10.957Z,81.70
2023-02-20T15:33:56.937Z,81.70
2023-02-20T15:36:26.355Z,81.80
2023-02-20T15:38:55.859Z,81.80
2023-02-20T15:41:24.002Z,81.80
2023-02-20T15:43:51.806Z,81.80
2023-02-20T15:46:20.217Z,81.70
2023-02-20T15:48:47.669Z,81.70
2023-02-20T15:51:22.145Z,81.70
2023-02-20T15:53:51.936Z,81.70
2023-02-20T15:56:19.926Z,81.70
2023-02-20T15:58:48.558Z,81.80
2023-02-20T16:01:17.092Z,81.80
2023-02-20T16:03:52.108Z,81.80
2023-02-20T16:06:22.319Z,81.90
2023-02-20T16:08:50.729Z,81.90
2023-02-20T16:11:19.814Z,81.90
2023-02-20T16:13:52.167Z,81.90
2023-02-20T16:16:25.016Z,81.90
2023-02-20T16:18:55.019Z,81.80
2023-02-20T16:21:24.378Z,81.90
2023-02-20T16:23:51.975Z,81.80
2023-02-20T16:26:22.212Z,81.70
2023-02-20T16:29:15.398Z,81.80
2023-02-20T16:32:00.537Z,81.90
2023-02-20T16:34:32.836Z,82.00
2023-02-20T16:37:00.771Z,82.00
2023-02-20T16:39:27.871Z,82.00
2023-02-20T16:41:58.169Z,82.00
2023-02-20T16:44:41.497Z,82.00
2023-02-20T16:47:18.010Z,82.00
2023-02-20T16:49:45.526Z,81.90
2023-02-20T16:52:25.250Z,81.90
2023-02-20T16:54:54.415Z,81.80
2023-02-20T16:57:23.844Z,81.80
2023-02-20T16:59:55.436Z,81.80
2023-02-20T17:02:31.494Z,81.80
2023-02-20T17:04:59.733Z,81.80
2023-02-20T17:07:27.449Z,81.80
2023-02-20T17:09:55.365Z,81.80
2023-02-20T17:12:24.500Z,81.90
2023-02-20T17:14:53.663Z,81.90
2023-02-20T17:17:22.229Z,81.90
2023-02-20T17:19:53.037Z,81.90
2023-02-20T17:22:21.216Z,81.90
2023-02-20T17:24:48.343Z,82.00
2023-02-20T17:27:15.468Z,82.00
2023-02-20T17:29:43.890Z,82.10
2023-02-20T17:32:11.512Z,82.10
2023-02-20T17:34:38.883Z,82.20
2023-02-20T17:37:08.178Z,82.20
2023-02-20T17:39:35.745Z,82.20
2023-02-20T17:42:03.313Z,82.30
2023-02-20T17:44:31.525Z,82.20
2023-02-20T17:47:00.344Z,82.20
2023-02-20T17:49:28.370Z,82.20
2023-02-20T17:52:00.514Z,82.20
2023-02-20T17:54:29.725Z,82.20
2023-02-20T17:56:56.806Z,82.30
2023-02-20T17:59:24.805Z,82.40
2023-02-20T18:01:52.198Z,82.40
2023-02-20T18:04:21.139Z,82.40
2023-02-20T18:06:49.014Z,82.40
2023-02-20T18:09:17.732Z,82.40
2023-02-20T18:11:46.218Z,82.50
2023-02-20T18:14:14.495Z,82.50
2023-02-20T18:16:41.800Z,82.50
2023-02-20T18:19:13.650Z,82.50
2023-02-20T18:21:42.558Z,82.60
2023-02-20T18:24:10.805Z,82.60
2023-02-20T18:26:38.317Z,82.70
2023-02-20T18:29:05.585Z,82.70
2023-02-20T18:31:33.109Z,82.80
2023-02-20T18:34:00.545Z,82.80
2023-02-20T18:36:29.700Z,82.80
2023-02-20T18:38:57.493Z,82.80
2023-02-20T18:41:25.079Z,82.80
2023-02-20T18:43:52.179Z,82.80
2023-02-20T18:46:45.500Z,82.90
2023-02-20T18:49:13.052Z,83.00
2023-02-20T18:51:42.131Z,83.10
2023-02-20T18:54:16.927Z,83.20
2023-02-20T18:56:51.502Z,83.20
2023-02-20T18:59:19.768Z,83.30
2023-02-20T19:01:46.916Z,83.30
2023-02-20T19:04:14.997Z,83.30
2023-02-20T19:06:44.729Z,83.40
2023-02-20T19:09:19.180Z,83.40
2023-02-20T19:11:54.392Z,83.50
2023-02-20T19:14:22.824Z,83.50
2023-02-20T19:16:55.728Z,83.50
2023-02-20T19:19:26.051Z,83.60
2023-02-20T19:21:54.036Z,83.70
2023-02-20T19:24:21.750Z,83.70
2023-02-20T19:26:48.881Z,83.80
2023-02-20T19:29:15.905Z,83.80
2023-02-20T19:31:43.095Z,83.80
2023-02-20T19:34:10.454Z,83.90
2023-02-20T19:36:41.352Z,83.90
2023-02-20T19:39:09.690Z,83.90
2023-02-20T19:41:38.111Z,83.90
2023-02-20T19:44:06.113Z,83.90
2023-02-20T19:46:33.556Z,83.90
2023-02-20T19:49:00.599Z,83.90
2023-02-20T19:51:27.589Z,83.90
2023-02-20T19:53:54.659Z,83.90
2023-02-20T19:56:21.559Z,84.00
2023-02-20T19:58:48.592Z,84.00
2023-02-20T20:01:18.560Z,83.90
2023-02-20T20:03:47.092Z,84.00
2023-02-20T20:06:16.339Z,84.10
2023-02-20T20:09:09.562Z,84.20
2023-02-20T20:11:31.597Z,84.20
2023-02-20T20:13:58.592Z,84.20
2023-02-20T20:16:25.992Z,84.20
2023-02-20T20:18:53.417Z,84.20
2023-02-20T20:21:21.590Z,84.20
2023-02-20T20:23:48.645Z,84.20
2023-02-20T20:26:15.910Z,84.20
2023-02-20T20:28:43.153Z,84.20
2023-02-20T20:31:10.274Z,84.10
2023-02-20T20:33:37.225Z,84.20
2023-02-20T20:36:04.745Z,84.20
2023-02-20T20:38:31.671Z,84.30
2023-02-20T20:40:58.737Z,84.30
2023-02-20T20:43:25.718Z,84.30
2023-02-20T20:45:52.727Z,84.30
2023-02-20T20:48:19.786Z,84.30
2023-02-20T20:50:47.145Z,84.40
2023-02-20T20:53:14.102Z,84.40
2023-02-20T20:55:41.082Z,84.40
2023-02-20T20:58:08.348Z,84.40
2023-02-20T21:00:36.255Z,84.40
2023-02-20T21:03:09.531Z,84.50
2023-02-20T21:05:37.470Z,84.40
2023-02-20T21:08:06.373Z,84.40
2023-02-20T21:10:33.472Z,84.40
2023-02-20T21:13:00.509Z,84.40
2023-02-20T21:15:28.079Z,84.40
2023-02-20T21:17:55.208Z,84.50
2023-02-20T21:20:25.266Z,84.50
2023-02-20T21:22:52.573Z,84.60
2023-02-20T21:25:21.810Z,84.70
2023-02-20T21:27:50.146Z,84.70
2023-02-20T21:30:17.159Z,84.80
2023-02-20T21:32:44.639Z,84.80
2023-02-20T21:35:14.117Z,84.80
2023-02-20T21:37:41.192Z,84.90
2023-02-20T21:40:08.972Z,84.90
2023-02-20T21:42:54.874Z,85.00
2023-02-20T21:45:22.018Z,85.00
2023-02-20T21:47:49.063Z,85.10
2023-02-20T21:50:18.961Z,85.10
2023-02-20T21:52:47.352Z,85.10
2023-02-20T21:55:18.032Z,85.10
2023-02-20T21:57:45.573Z,85.10
2023-02-20T22:00:14.160Z,85.20
2023-02-20T22:02:41.577Z,85.10
2023-02-20T22:05:09.624Z,85.10
2023-02-20T22:07:55.323Z,85.00
2023-02-20T22:10:40.885Z,84.90
2023-02-20T22:13:26.749Z,84.90
2023-02-20T22:16:13.951Z,84.80
2023-02-20T22:18:59.462Z,84.90
2023-02-20T22:21:45.659Z,84.90
2023-02-20T22:24:38.702Z,85.00
2023-02-20T22:27:26.774Z,85.00
2023-02-20T22:30:12.868Z,85.00
2023-02-20T22:32:58.739Z,85.00
2023-02-20T22:35:45.507Z,85.10
2023-02-20T22:38:31.287Z,85.10
2023-02-20T22:41:17.415Z,85.20
2023-02-20T22:44:03.166Z,85.30
2023-02-20T22:46:48.714Z,85.30
2023-02-20T22:49:34.595Z,85.40
2023-02-20T22:52:20.367Z,85.40
2023-02-20T22:55:07.812Z,85.50
2023-02-20T22:57:53.411Z,85.40
2023-02-20T23:00:39.578Z,85.40
2023-02-20T23:03:25.468Z,85.40
2023-02-20T23:06:18.070Z,85.40
2023-02-20T23:09:08.368Z,85.50
2023-02-20T23:11:54.995Z,85.50
2023-02-20T23:14:40.970Z,85.50
2023-02-20T23:17:35.520Z,85.60
2023-02-20T23:20:25.439Z,85.50
2023-02-20T23:23:11.923Z,85.60
2023-02-20T23:25:57.312Z,85.60
2023-02-20T23:28:42.971Z,85.60
2023-02-20T23:31:28.476Z,85.60
2023-02-20T23:34:13.771Z,85.50
2023-02-20T23:37:04.660Z,85.50
2023-02-20T23:39:50.416Z,85.50
2023-02-20T23:42:37.212Z,85.50
2023-02-20T23:45:24.590Z,85.50
2023-02-20T23:48:10.501Z,85.50
2023-02-20T23:50:55.857Z,85.60
2023-02-20T23:53:41.522Z,85.60
2023-02-20T23:56:27.207Z,85.60
2023-02-20T23:59:12.613Z,85.60
